Time;durP1;ratioP1;P1;durP2;ratioP2;P2;SDS_P1;SDS_P2;PMS_P1;PMS_P2;Temp;Humidity;BMP_temperature;BMP_pressure;BME280_temperature;BME280_humidity;BME280_pressure;Samples;Min_cycle;Max_cycle;Signal;HPM_P1;HPM_P2
2021/03/22 00:01:53;;;;;;;24.37;11.05;;;;;;;0.18;72.98;100126.72;2161491;81;30320;-68
2021/03/22 00:04:55;;;;;;;31.37;11.95;;;;;;;0.11;73.04;100128.97;2193438;80;33194;-69
2021/03/22 00:07:57;;;;;;;22.87;9.03;;;;;;;0.06;73.06;100130.80;2190721;80;29208;-69
2021/03/22 00:10:59;;;;;;;26.30;9.70;;;;;;;-0.02;73.10;100131.73;2178580;80;28262;-69
2021/03/22 00:14:02;;;;;;;23.67;9.78;;;;;;;-0.06;73.12;100137.90;2163203;81;29833;-69
2021/03/22 00:17:05;;;;;;;20.77;9.43;;;;;;;-0.08;73.23;100142.77;2184311;81;32393;-68
2021/03/22 00:20:09;;;;;;;23.02;10.03;;;;;;;-0.13;73.25;100146.75;2163392;80;33107;-69
2021/03/22 00:23:12;;;;;;;20.60;9.08;;;;;;;-0.17;73.35;100152.50;2159019;80;29172;-69
2021/03/22 00:26:14;;;;;;;21.80;10.10;;;;;;;-0.20;73.32;100160.41;2167197;80;27695;-69
2021/03/22 00:29:16;;;;;;;22.58;9.00;;;;;;;-0.26;73.25;100162.22;2176246;80;28926;-69
2021/03/22 00:32:18;;;;;;;26.45;10.43;;;;;;;-0.32;73.35;100166.64;2197685;80;31348;-69
2021/03/22 00:35:21;;;;;;;24.67;10.20;;;;;;;-0.36;73.50;100167.53;2196765;80;34232;-69
2021/03/22 00:38:23;;;;;;;23.50;11.03;;;;;;;-0.38;73.58;100169.75;2160354;81;29342;-69
2021/03/22 00:41:25;;;;;;;28.55;10.65;;;;;;;-0.41;73.55;100165.83;2198258;80;27756;-70
2021/03/22 00:44:27;;;;;;;28.52;12.20;;;;;;;-0.46;73.57;100170.67;2173709;80;28807;-70
2021/03/22 00:47:29;;;;;;;31.07;12.85;;;;;;;-0.47;73.56;100166.28;2175532;80;32098;-71
2021/03/22 00:50:41;;;;;;;29.55;12.37;;;;;;;-0.48;73.63;100166.31;2173196;80;33174;-71
2021/03/22 00:53:43;;;;;;;33.80;12.70;;;;;;;-0.47;73.78;100172.00;2161480;82;29149;-70
2021/03/22 00:56:45;;;;;;;33.58;14.07;;;;;;;-0.48;73.76;100168.48;2162709;80;27694;-70
2021/03/22 00:59:47;;;;;;;26.45;11.97;;;;;;;-0.47;73.76;100164.11;2160960;80;29766;-70
2021/03/22 01:02:50;;;;;;;35.33;15.38;;;;;;;-0.47;73.77;100169.37;2198157;80;31136;-69
2021/03/22 01:05:52;;;;;;;36.08;13.28;;;;;;;-0.46;73.75;100171.12;2191871;80;33187;-69
2021/03/22 01:08:55;;;;;;;35.48;14.47;;;;;;;-0.47;73.76;100170.69;2161893;80;29160;-71
2021/03/22 01:11:57;;;;;;;35.35;14.05;;;;;;;-0.46;73.78;100164.09;2197288;80;27549;-70
2021/03/22 01:14:59;;;;;;;43.42;16.80;;;;;;;-0.47;73.79;100166.28;2178691;80;30117;-70
2021/03/22 01:18:02;;;;;;;46.92;17.07;;;;;;;-0.46;73.68;100161.91;2167839;80;31162;-69
2021/03/22 01:21:15;;;;;;;41.68;16.30;;;;;;;-0.47;73.77;100161.02;2176936;79;33201;-70
2021/03/22 01:24:20;;;;;;;36.13;13.85;;;;;;;-0.44;73.69;100157.94;2167469;80;29156;-71
2021/03/22 01:27:22;;;;;;;36.95;14.47;;;;;;;-0.45;73.63;100157.09;2198742;80;27640;-69
2021/03/22 01:30:35;;;;;;;37.88;14.00;;;;;;;-0.44;73.60;100150.05;2178203;80;28802;-70
2021/03/22 01:33:51;;;;;;;36.83;15.57;;;;;;;-0.41;73.60;100139.51;2245963;78;37192;-70
2021/03/22 01:36:51;;;;;;;39.15;14.73;;;;;;;-0.45;73.48;100145.24;2227277;79;27713;-69
2021/03/22 01:39:54;;;;;;;36.08;14.87;;;;;;;-0.47;73.41;100137.80;2199541;79;28121;-71
2021/03/22 01:43:21;;;;;;;36.98;15.68;;;;;;;-0.48;73.50;100138.22;2189413;81;31143;-70
2021/03/22 01:46:23;;;;;;;34.53;14.35;;;;;;;-0.48;73.51;100133.41;2210999;79;33147;-71
2021/03/22 01:49:30;;;;;;;31.85;14.10;;;;;;;-0.50;73.56;100128.18;2195670;79;28536;-71
2021/03/22 01:52:35;;;;;;;34.92;14.23;;;;;;;-0.48;73.45;100134.73;2228270;79;27729;-68
2021/03/22 01:55:37;;;;;;;31.45;14.45;;;;;;;-0.47;73.52;100132.53;2198175;79;29728;-70
2021/03/22 01:58:40;;;;;;;34.70;14.35;;;;;;;-0.47;73.60;100129.91;2198333;79;31140;-69
2021/03/22 02:01:47;;;;;;;40.55;15.45;;;;;;;-0.46;73.61;100132.97;2195342;80;33109;-68
2021/03/22 02:04:49;;;;;;;33.83;14.23;;;;;;;-0.46;73.62;100127.70;2179488;81;28860;-69
2021/03/22 02:08:08;;;;;;;37.93;15.25;;;;;;;-0.44;73.78;100120.67;2182372;80;27635;-71
2021/03/22 02:11:20;;;;;;;31.87;14.95;;;;;;;-0.40;73.86;100124.16;2190704;80;28815;-71
2021/03/22 02:14:22;;;;;;;31.42;13.32;;;;;;;-0.37;73.96;100118.41;2215748;80;32111;-70
2021/03/22 02:17:39;;;;;;;29.00;12.35;;;;;;;-0.33;74.08;100120.59;2191559;80;33913;-71
2021/03/22 02:21:20;;;;;;;29.75;12.90;;;;;;;-0.28;74.08;100122.73;2182169;80;30127;-69
2021/03/22 02:25:05;;;;;;;28.70;12.30;;;;;;;-0.23;74.15;100119.63;2180199;80;27797;-70
2021/03/22 02:28:56;;;;;;;28.40;11.75;;;;;;;-0.18;74.19;100123.53;2184508;80;29788;-70
2021/03/22 02:32:30;;;;;;;25.95;12.47;;;;;;;-0.13;74.20;100115.16;2139679;82;31154;-70
2021/03/22 02:35:50;;;;;;;25.27;11.33;;;;;;;-0.09;74.15;100122.16;2047923;86;33568;-70
2021/03/22 02:39:03;;;;;;;27.40;11.67;;;;;;;-0.01;74.18;100118.13;2284364;76;36847;-68
2021/03/22 02:42:08;;;;;;;26.75;12.28;;;;;;;-0.04;74.21;100121.65;2247409;78;27586;-70
2021/03/22 02:45:13;;;;;;;23.92;10.85;;;;;;;0.00;74.13;100122.52;2239789;78;32297;-70
2021/03/22 02:48:20;;;;;;;;;;;;;;;-0.01;74.10;100118.13;2238635;77;31229;-71
2021/03/22 02:52:04;;;;;;;24.40;9.80;;;;;;;-0.01;73.98;100123.41;2230491;78;33111;-71
2021/03/22 02:55:17;;;;;;;26.02;10.63;;;;;;;-0.04;73.96;100119.02;2180141;80;28551;-69
2021/03/22 02:58:24;;;;;;;24.12;10.88;;;;;;;-0.08;73.84;100118.60;2179910;80;27658;-71
2021/03/22 03:01:40;;;;;;;22.93;9.45;;;;;;;-0.10;73.80;100128.30;2196557;80;28852;-71
2021/03/22 03:04:43;;;;;;;25.15;10.18;;;;;;;-0.13;73.87;100136.22;2140080;81;32118;-72
2021/03/22 03:07:46;;;;;;;21.65;11.05;;;;;;;-0.15;73.85;100144.58;2207342;80;33954;-71
2021/03/22 03:10:48;;;;;;;26.73;10.55;;;;;;;-0.17;73.76;100139.77;2164698;81;29726;-72
2021/03/22 03:13:50;;;;;;;25.55;10.38;;;;;;;-0.19;73.83;100151.63;2190895;80;27752;-72
2021/03/22 03:16:52;;;;;;;21.57;10.50;;;;;;;-0.21;73.83;100140.23;2173808;81;29818;-72
2021/03/22 03:19:55;;;;;;;24.23;11.38;;;;;;;-0.21;73.92;100145.50;2217127;80;32082;-71
2021/03/22 03:22:59;;;;;;;35.88;11.15;;;;;;;-0.19;74.08;100147.69;2175901;81;33984;-71
2021/03/22 03:26:02;;;;;;;24.95;11.50;;;;;;;-0.17;74.10;100146.34;2203796;80;28857;-71
2021/03/22 03:29:05;;;;;;;25.10;10.65;;;;;;;-0.14;74.11;100145.01;2162323;81;27668;-71
2021/03/22 03:32:12;;;;;;;26.23;10.65;;;;;;;-0.14;74.12;100146.75;2198729;80;29775;-72
2021/03/22 03:35:16;;;;;;;21.93;11.03;;;;;;;-0.13;74.19;100145.86;2159765;81;32183;-71
2021/03/22 03:38:18;;;;;;;22.85;10.38;;;;;;;-0.11;74.22;100149.36;2183880;80;33104;-71
2021/03/22 03:41:20;;;;;;;20.90;10.68;;;;;;;-0.09;74.30;100146.28;2171505;81;28867;-69
2021/03/22 03:44:22;;;;;;;22.67;9.90;;;;;;;-0.08;74.26;100146.25;2187153;80;27693;-71
2021/03/22 03:47:24;;;;;;;28.57;10.88;;;;;;;-0.06;74.23;100147.58;2147038;81;29018;-67
2021/03/22 03:50:29;;;;;;;24.82;10.28;;;;;;;-0.06;74.17;100152.38;2190753;80;31144;-70
2021/03/22 03:53:32;;;;;;;25.70;11.10;;;;;;;-0.05;74.20;100154.12;2170115;81;33055;-69
2021/03/22 03:56:34;;;;;;;19.70;10.35;;;;;;;-0.03;74.13;100154.14;2223227;80;28838;-69
2021/03/22 03:59:37;;;;;;;19.65;9.75;;;;;;;-0.04;74.14;100155.87;2148493;81;27916;-67
2021/03/22 04:02:43;;;;;;;21.77;9.55;;;;;;;-0.04;74.24;100162.92;2218399;80;28758;-69
2021/03/22 04:05:45;;;;;;;20.52;8.98;;;;;;;-0.03;74.35;100163.36;2222408;80;31153;-67
2021/03/22 04:09:01;;;;;;;20.32;8.73;;;;;;;-0.01;74.29;100161.12;2184153;80;33087;-69
2021/03/22 04:12:04;;;;;;;21.50;8.58;;;;;;;-0.01;74.33;100162.91;2188681;80;28907;-68
2021/03/22 04:15:11;;;;;;;20.05;9.28;;;;;;;0.06;74.47;100171.63;2199009;78;27646;-69
2021/03/22 04:18:13;;;;;;;28.30;10.48;;;;;;;0.11;74.54;100173.33;2215101;80;28894;-66
2021/03/22 04:21:23;;;;;;;20.40;10.00;;;;;;;0.16;74.47;100168.47;2212690;80;31113;-73
2021/03/22 04:24:26;;;;;;;23.85;10.75;;;;;;;0.19;74.44;100173.68;2176083;81;33162;-70
2021/03/22 04:27:28;;;;;;;21.10;9.98;;;;;;;0.21;74.44;100167.95;2210200;80;29080;-68
2021/03/22 04:30:30;;;;;;;25.88;11.20;;;;;;;0.22;74.45;100169.70;2145187;81;27665;-71
2021/03/22 04:33:33;;;;;;;20.80;10.10;;;;;;;0.25;74.48;100178.91;2206808;80;30115;-66
2021/03/22 04:36:36;;;;;;;20.10;10.08;;;;;;;0.24;74.41;100174.09;2144900;83;32023;-67
2021/03/22 04:39:38;;;;;;;17.00;9.95;;;;;;;0.26;74.52;100176.24;2190612;80;33121;-71
2021/03/22 04:42:41;;;;;;;21.77;9.40;;;;;;;0.28;74.45;100178.42;2138855;81;28853;-68
2021/03/22 04:45:43;;;;;;;20.77;9.08;;;;;;;0.28;74.43;100182.83;2184259;80;27653;-71
2021/03/22 04:48:45;;;;;;;19.00;9.60;;;;;;;0.30;74.46;100181.92;2204283;78;28807;-71
2021/03/22 04:51:47;;;;;;;26.15;9.70;;;;;;;0.33;74.43;100181.04;2127740;83;31168;-71
2021/03/22 04:54:50;;;;;;;20.92;9.40;;;;;;;0.38;74.61;100177.03;2164500;81;33124;-72
2021/03/22 04:57:53;;;;;;;24.15;9.35;;;;;;;0.44;74.71;100180.91;2214480;80;28924;-72
2021/03/22 05:00:55;;;;;;;19.92;9.70;;;;;;;0.51;74.71;100182.61;2216854;80;27616;-72
2021/03/22 05:03:57;;;;;;;26.90;10.90;;;;;;;0.56;74.67;100186.51;2212629;80;29772;-72
2021/03/22 05:06:59;;;;;;;22.42;10.65;;;;;;;0.60;74.65;100186.91;2210854;80;32142;-72
2021/03/22 05:10:04;;;;;;;24.98;11.10;;;;;;;0.64;74.47;100183.78;2214684;80;34064;-71
2021/03/22 05:13:09;;;;;;;19.62;10.58;;;;;;;0.67;74.47;100187.72;2172913;81;28859;-71
2021/03/22 05:16:13;;;;;;;27.67;10.17;;;;;;;0.69;74.40;100183.30;2215673;80;27679;-72
2021/03/22 05:19:14;;;;;;;23.38;9.68;;;;;;;0.73;74.48;100179.75;2149687;81;28849;-72
2021/03/22 05:22:17;;;;;;;22.52;10.63;;;;;;;0.79;74.33;100186.71;2215676;80;31131;-72
2021/03/22 05:25:20;;;;;;;22.87;9.75;;;;;;;0.84;74.28;100200.27;2173590;81;33117;-72
2021/03/22 05:28:25;;;;;;;28.20;10.75;;;;;;;0.86;74.29;100199.81;2216721;80;28907;-72
2021/03/22 05:31:27;;;;;;;25.15;10.78;;;;;;;0.91;74.14;100201.92;2176260;81;27905;-71
2021/03/22 05:34:29;;;;;;;30.10;12.43;;;;;;;0.93;74.08;100207.20;2216714;80;28798;-71
2021/03/22 05:37:31;;;;;;;29.45;11.70;;;;;;;0.93;74.07;100193.13;2164201;81;32459;-71
2021/03/22 05:40:41;;;;;;;27.82;11.88;;;;;;;0.97;74.13;100207.61;2173824;81;33572;-70
2021/03/22 05:44:10;;;;;;;24.00;11.50;;;;;;;0.97;74.02;100206.28;2178911;80;28864;-71
2021/03/22 05:47:41;;;;;;;21.77;12.20;;;;;;;0.97;74.02;100214.63;2205485;80;27647;-72
2021/03/22 05:51:40;;;;;;;28.05;12.40;;;;;;;1.00;74.09;100214.14;2178507;81;28147;-71
2021/03/22 05:54:59;;;;;;;24.57;10.50;;;;;;;1.05;74.06;100218.06;2140904;81;31153;-72
2021/03/22 05:58:35;;;;;;;21.68;10.85;;;;;;;1.10;73.88;100210.95;2140338;81;33102;-71
2021/03/22 06:01:45;;;;;;;23.22;11.40;;;;;;;1.16;73.98;100210.02;2147227;81;28047;-71
2021/03/22 06:05:15;;;;;;;31.90;11.47;;;;;;;1.30;73.83;100209.40;2296348;76;27903;-72
2021/03/22 06:08:47;;;;;;;20.48;10.63;;;;;;;1.28;73.73;100205.91;2207599;78;27906;-70
2021/03/22 06:12:28;;;;;;;23.52;11.75;;;;;;;1.37;73.79;100215.47;2226832;78;30134;-71
2021/03/22 06:15:38;;;;;;;23.60;12.82;;;;;;;1.43;73.61;100220.64;2258284;78;31648;-71
2021/03/22 06:18:45;;;;;;;25.88;11.50;;;;;;;1.53;73.89;100220.08;2033494;85;33112;-70
2021/03/22 06:21:49;;;;;;;22.45;11.03;;;;;;;1.64;73.81;100218.61;2058535;86;28554;-70
2021/03/22 06:24:52;;;;;;;23.38;10.58;;;;;;;1.73;73.63;100227.73;2059841;86;28237;-71
2021/03/22 06:27:59;;;;;;;19.73;9.50;;;;;;;1.81;73.46;100227.63;2061802;84;28908;-72
2021/03/22 06:31:08;;;;;;;28.00;10.00;;;;;;;1.91;73.45;100230.97;2122420;83;31162;-71
2021/03/22 06:34:14;;;;;;;32.28;12.20;;;;;;;1.97;73.19;100234.85;2124405;83;33387;-71
2021/03/22 06:37:19;;;;;;;27.75;10.32;;;;;;;2.04;73.34;100238.27;2124976;83;29965;-71
2021/03/22 06:40:32;;;;;;;18.62;9.95;;;;;;;2.10;72.99;100239.05;2117909;83;27744;-71
2021/03/22 06:43:36;;;;;;;23.83;10.95;;;;;;;2.18;72.83;100242.89;2123784;83;29280;-71
2021/03/22 06:47:15;;;;;;;23.93;10.73;;;;;;;2.30;72.78;100246.25;2255812;77;27776;-70
2021/03/22 06:50:28;;;;;;;19.80;9.68;;;;;;;2.34;72.75;100256.74;2214289;78;27768;-71
2021/03/22 06:53:40;;;;;;;18.80;8.60;;;;;;;2.48;72.72;100258.28;2198267;79;28823;-71
2021/03/22 06:56:48;;;;;;;17.40;9.30;;;;;;;2.62;72.61;100261.55;2189446;81;31156;-71
2021/03/22 07:00:15;;;;;;;17.60;9.13;;;;;;;2.74;72.19;100271.05;2184433;81;34045;-70
2021/03/22 07:03:24;;;;;;;19.05;9.33;;;;;;;2.79;71.71;100274.50;2189365;81;28653;-70
2021/03/22 07:06:27;;;;;;;17.67;9.08;;;;;;;2.82;71.61;100284.99;2189750;79;27683;-71
2021/03/22 07:09:31;;;;;;;21.00;9.45;;;;;;;2.86;71.69;100279.22;2228405;79;28822;-69
2021/03/22 07:12:38;;;;;;;164.40;23.80;;;;;;;2.93;71.70;100279.52;2214153;79;31130;-70
2021/03/22 07:15:41;;;;;;;34.33;9.15;;;;;;;3.01;71.57;100287.31;2219395;78;33131;-70
2021/03/22 07:18:50;;;;;;;30.00;10.23;;;;;;;3.09;71.32;100292.02;2228560;79;28796;-71
2021/03/22 07:21:59;;;;;;;18.90;8.93;;;;;;;3.12;71.20;100295.94;2224926;79;27778;-70
2021/03/22 07:25:35;;;;;;;18.90;9.23;;;;;;;3.25;71.37;100300.52;2228589;79;28814;-71
2021/03/22 07:29:16;;;;;;;20.02;8.73;;;;;;;3.42;71.39;100295.34;2216934;79;31212;-69
2021/03/22 07:32:51;;;;;;;16.95;7.58;;;;;;;3.62;71.09;100289.66;2209769;80;33282;-69
2021/03/22 07:36:36;;;;;;;17.77;8.20;;;;;;;3.77;71.16;100291.98;2200438;80;28940;-68
2021/03/22 07:39:48;;;;;;;20.40;8.68;;;;;;;3.83;70.43;100295.38;2218145;80;27666;-69
2021/03/22 07:43:28;;;;;;;37.53;10.88;;;;;;;3.92;70.64;100300.02;2219437;80;28813;-71
2021/03/22 07:47:24;;;;;;;15.58;8.23;;;;;;;3.94;69.86;100305.31;2157668;81;31053;-72
2021/03/22 07:50:43;;;;;;;17.40;7.85;;;;;;;3.94;69.82;100300.87;2129494;83;34229;-71
2021/03/22 07:54:11;;;;;;;20.20;10.30;;;;;;;3.93;69.54;100300.45;2129369;83;28845;-70
2021/03/22 07:57:59;;;;;;;18.20;9.07;;;;;;;4.00;69.64;100292.37;2248640;78;28327;-71
2021/03/22 08:01:36;;;;;;;19.40;8.85;;;;;;;4.00;69.56;100298.53;2159343;81;27804;-70
2021/03/22 08:04:59;;;;;;;17.70;8.97;;;;;;;4.20;69.85;100306.48;2251099;78;27664;-66
2021/03/22 08:08:19;;;;;;;44.80;11.85;;;;;;;4.28;69.65;100308.95;2144646;83;27633;-69
2021/03/22 08:11:47;;;;;;;15.70;8.08;;;;;;;4.40;69.46;100308.22;2206019;80;28779;-70
2021/03/22 08:14:55;;;;;;;18.25;7.55;;;;;;;4.70;69.59;100300.41;2138011;82;31220;-70
2021/03/22 08:18:20;;;;;;;18.20;9.63;;;;;;;4.99;68.71;100303.22;2150131;82;33994;-70
2021/03/22 08:21:48;;;;;;;14.90;8.15;;;;;;;5.13;68.45;100311.69;2186673;81;28540;-68
2021/03/22 08:25:29;;;;;;;25.52;9.58;;;;;;;5.36;68.26;100317.27;2186561;81;27860;-70
2021/03/22 08:28:45;;;;;;;19.07;9.03;;;;;;;5.57;68.24;100318.45;2186518;81;28822;-72
2021/03/22 08:31:59;;;;;;;16.12;8.38;;;;;;;5.90;67.92;100312.61;2186513;81;32101;-69
2021/03/22 08:35:41;;;;;;;24.85;10.72;;;;;;;6.26;68.02;100317.34;2185318;81;33980;-69
2021/03/22 08:38:50;;;;;;;21.30;10.55;;;;;;;6.34;67.29;100311.30;2212620;80;28858;-69
2021/03/22 08:42:08;;;;;;;14.83;8.25;;;;;;;6.32;66.60;100320.67;2206416;80;27662;-69
2021/03/22 08:45:31;;;;;;;19.17;9.68;;;;;;;6.20;66.19;100314.42;2147957;82;28830;-70
2021/03/22 08:48:33;;;;;;;25.27;10.60;;;;;;;6.08;66.70;100313.86;2222089;79;31199;-70
2021/03/22 08:51:36;;;;;;;26.35;13.98;;;;;;;6.03;66.72;100318.47;2168907;79;33957;-69
2021/03/22 08:54:38;;;;;;;28.95;15.85;;;;;;;6.01;65.80;100320.30;2186441;81;28847;-70
2021/03/22 08:58:11;;;;;;;18.32;9.90;;;;;;;6.03;65.71;100333.54;2181935;79;27750;-72
2021/03/22 09:01:29;;;;;;;16.75;10.60;;;;;;;6.25;66.50;100320.44;2154076;79;28826;-70
2021/03/22 09:04:33;;;;;;;20.48;11.33;;;;;;;6.54;66.14;100334.16;2157133;81;31194;-70
2021/03/22 09:07:38;;;;;;;22.35;10.45;;;;;;;6.81;65.79;100335.48;2186911;81;33098;-69
2021/03/22 09:10:42;;;;;;;26.75;14.28;;;;;;;6.95;65.16;100344.83;2151247;81;28549;-69
2021/03/22 09:14:04;;;;;;;30.30;18.48;;;;;;;7.04;64.71;100350.27;2151062;81;27645;-68
2021/03/22 09:17:42;;;;;;;19.57;10.40;;;;;;;7.10;64.83;100355.40;2148089;82;28863;-71
2021/03/22 09:20:56;;;;;;;21.40;11.57;;;;;;;7.14;64.81;100351.72;2112404;82;31155;-70
2021/03/22 09:23:58;;;;;;;21.65;10.00;;;;;;;7.21;64.28;100357.22;2111651;84;33109;-71
2021/03/22 09:27:00;;;;;;;18.82;8.80;;;;;;;7.32;64.68;100352.85;2111681;84;28864;-70
2021/03/22 09:30:11;;;;;;;16.80;9.03;;;;;;;7.48;63.86;100354.97;2111995;84;27728;-69
2021/03/22 09:33:19;;;;;;;18.80;8.53;;;;;;;7.55;63.68;100355.17;2076927;84;28868;-70
2021/03/22 09:36:37;;;;;;;20.35;8.78;;;;;;;7.63;63.80;100355.75;2102235;83;31170;-68
2021/03/22 09:39:48;;;;;;;20.55;9.60;;;;;;;7.66;63.49;100350.31;2095698;83;34039;-70
2021/03/22 09:43:20;;;;;;;20.30;10.58;;;;;;;7.70;63.50;100357.72;2094788;83;29118;-72
2021/03/22 09:46:29;;;;;;;16.87;8.03;;;;;;;7.75;63.50;100357.09;2117333;83;27873;-75
2021/03/22 09:49:54;;;;;;;22.05;11.10;;;;;;;7.80;62.76;100358.25;2114321;83;29727;-71
2021/03/22 09:53:04;;;;;;;19.57;10.28;;;;;;;7.80;62.74;100347.14;2095471;84;31139;-69
2021/03/22 09:56:35;;;;;;;17.03;9.07;;;;;;;7.90;62.65;100349.85;2247595;78;30825;-67
2021/03/22 10:00:00;;;;;;;13.68;5.30;;;;;;;7.90;61.75;100357.00;2228718;79;27584;-70
2021/03/22 10:03:30;;;;;;;66.23;11.83;;;;;;;7.86;62.17;100360.23;2229042;79;28833;-69
2021/03/22 10:07:08;;;;;;;11.88;6.50;;;;;;;7.81;60.79;100354.22;2147563;82;31114;-71
2021/03/22 10:10:22;;;;;;;18.45;6.83;;;;;;;7.83;62.14;100363.03;2217741;80;33059;-70
2021/03/22 10:13:37;;;;;;;14.07;5.33;;;;;;;7.89;62.01;100356.59;2217706;80;28579;-72
2021/03/22 10:16:40;;;;;;;16.52;4.95;;;;;;;8.01;61.62;100361.45;2207326;80;27652;-73
2021/03/22 10:19:45;;;;;;;25.55;5.70;;;;;;;8.07;61.14;100367.02;2215397;80;29670;-70
2021/03/22 10:22:48;;;;;;;14.33;5.17;;;;;;;8.10;61.20;100366.05;2165335;81;32123;-71
2021/03/22 10:25:55;;;;;;;18.17;5.10;;;;;;;8.04;59.20;100363.13;2179309;81;33062;-71
2021/03/22 10:29:26;;;;;;;8.63;5.10;;;;;;;7.89;58.66;100361.45;2179349;80;28666;-71
2021/03/22 10:32:28;;;;;;;10.60;4.60;;;;;;;7.78;59.73;100373.47;2206317;80;27621;-70
2021/03/22 10:35:49;;;;;;;15.35;5.62;;;;;;;7.78;59.92;100370.80;2217726;80;28993;-70
2021/03/22 10:38:53;;;;;;;14.18;5.05;;;;;;;7.73;60.50;100373.17;2183856;80;32051;-69
2021/03/22 10:41:55;;;;;;;11.30;5.80;;;;;;;7.65;59.65;100374.38;2181333;80;34366;-71
2021/03/22 10:44:58;;;;;;;10.72;5.55;;;;;;;7.57;59.70;100371.98;2199633;80;28929;-71
2021/03/22 10:48:14;;;;;;;13.90;6.40;;;;;;;7.58;59.66;100373.73;2176233;80;27683;-70
2021/03/22 10:51:19;;;;;;;11.22;6.50;;;;;;;7.57;59.40;100378.65;2158656;82;28762;-72
2021/03/22 10:54:41;;;;;;;15.00;6.70;;;;;;;7.48;59.83;100380.30;2058758;85;31219;-70
2021/03/22 10:57:54;;;;;;;19.80;11.33;;;;;;;7.58;59.31;100391.05;2227049;77;28680;-71
2021/03/22 11:01:04;;;;;;;15.70;8.38;;;;;;;7.71;59.66;100391.46;2216097;78;27692;-70
2021/03/22 11:04:28;;;;;;;13.13;6.30;;;;;;;7.85;59.54;100391.86;2261846;78;28771;-71
2021/03/22 11:07:30;;;;;;;11.40;7.05;;;;;;;7.94;59.26;100374.64;2245360;78;32149;-71
2021/03/22 11:10:36;;;;;;;16.97;9.63;;;;;;;7.90;59.12;100390.34;2216298;79;33120;-69
2021/03/22 11:13:48;;;;;;;14.58;8.18;;;;;;;7.73;57.71;100387.83;2242081;78;28581;-69
2021/03/22 11:16:50;;;;;;;25.55;12.78;;;;;;;7.73;57.73;100382.50;2220329;78;27658;-66
2021/03/22 11:19:53;;;;;;;14.70;7.80;;;;;;;7.67;59.08;100381.38;2220368;80;28810;-71
2021/03/22 11:23:18;;;;;;;19.30;10.18;;;;;;;7.71;59.09;100390.13;2212903;78;31176;-73
2021/03/22 11:26:29;;;;;;;67.90;15.88;;;;;;;7.74;57.98;100392.69;2232468;78;33167;-68
2021/03/22 11:29:31;;;;;;;18.30;9.40;;;;;;;7.64;58.17;100381.48;2222241;78;29808;-73
2021/03/22 11:32:35;;;;;;;29.12;9.88;;;;;;;7.57;58.29;100383.50;2222216;80;28171;-68
2021/03/22 11:35:37;;;;;;;18.00;9.75;;;;;;;7.50;58.04;100383.78;2222224;78;28825;-68
2021/03/22 11:38:53;;;;;;;20.50;10.58;;;;;;;7.40;58.02;100390.78;2228438;78;30298;-69
2021/03/22 11:42:01;;;;;;;28.40;9.93;;;;;;;7.30;58.19;100386.23;2216906;78;33102;-68
2021/03/22 11:45:34;;;;;;;16.62;8.28;;;;;;;7.30;57.85;100388.01;2234135;78;29778;-70
2021/03/22 11:48:39;;;;;;;19.95;9.45;;;;;;;7.24;58.16;100382.44;2222641;80;27733;-69
2021/03/22 11:51:50;;;;;;;16.73;7.65;;;;;;;7.25;58.54;100380.19;2222166;80;28830;-70
2021/03/22 11:55:08;;;;;;;13.03;6.67;;;;;;;7.41;58.05;100383.20;2202435;80;31212;-72
2021/03/22 11:58:39;;;;;;;18.82;7.90;;;;;;;7.52;58.34;100384.60;2206880;79;33132;-71
2021/03/22 12:01:41;;;;;;;17.48;9.00;;;;;;;7.52;58.12;100377.94;2206645;80;28844;-70
2021/03/22 12:04:58;;;;;;;22.73;8.90;;;;;;;7.63;58.42;100380.22;2232404;79;27722;-71
2021/03/22 12:08:00;;;;;;;13.18;5.47;;;;;;;7.67;57.99;100384.52;2220018;79;28860;-67
2021/03/22 12:11:08;;;;;;;15.23;5.47;;;;;;;7.70;57.90;100384.39;2218993;79;31136;-70
2021/03/22 12:14:10;;;;;;;25.95;14.13;;;;;;;7.82;56.51;100383.08;2199815;79;33184;-70
2021/03/22 12:17:26;;;;;;;13.78;7.65;;;;;;;7.91;56.49;100373.41;2227373;79;29083;-70
2021/03/22 12:20:31;;;;;;;103.60;16.37;;;;;;;7.86;55.35;100384.23;2228870;79;27723;-70
2021/03/22 12:23:37;;;;;;;13.08;5.95;;;;;;;7.83;55.50;100384.81;2239804;79;28934;-68
2021/03/22 12:26:39;;;;;;;26.48;8.68;;;;;;;7.80;56.39;100383.14;2243266;79;31149;-69
2021/03/22 12:29:42;;;;;;;12.80;7.12;;;;;;;7.72;54.27;100391.88;2221496;79;33109;-68
2021/03/22 12:32:45;;;;;;;37.58;7.90;;;;;;;7.52;55.41;100384.60;2199303;79;28861;-69
2021/03/22 12:35:48;;;;;;;15.38;5.90;;;;;;;7.48;55.52;100380.30;2204950;79;28227;-70
2021/03/22 12:38:51;;;;;;;10.32;5.28;;;;;;;7.42;54.50;100382.27;2218487;79;28816;-72
2021/03/22 12:42:00;;;;;;;32.05;6.75;;;;;;;7.49;55.25;100372.70;2228680;79;31997;-67
2021/03/22 12:45:04;;;;;;;9.20;4.97;;;;;;;7.56;54.09;100388.42;2228630;79;33094;-68
2021/03/22 12:48:08;;;;;;;11.38;4.95;;;;;;;7.71;53.33;100388.35;2218572;79;28890;-70
2021/03/22 12:51:10;;;;;;;7.00;4.62;;;;;;;7.82;52.98;100383.08;2206108;80;28123;-71
2021/03/22 12:54:12;;;;;;;19.27;6.72;;;;;;;7.88;53.24;100384.20;2222672;79;28804;-71
2021/03/22 12:57:21;;;;;;;10.58;6.65;;;;;;;7.88;53.27;100380.19;2249036;78;32443;-69
2021/03/22 13:00:26;;;;;;;17.50;7.75;;;;;;;7.79;50.88;100385.41;2216773;80;33139;-68
2021/03/22 13:03:29;;;;;;;227.38;26.33;;;;;;;7.64;52.95;100382.82;2233701;78;29803;-70
2021/03/22 13:06:32;;;;;;;48.10;8.15;;;;;;;7.59;53.31;100390.98;2261017;78;27739;-69
2021/03/22 13:09:38;;;;;;;15.55;5.65;;;;;;;7.47;52.63;100394.09;2258924;78;28801;-68
2021/03/22 13:12:41;;;;;;;13.32;6.10;;;;;;;7.38;53.29;100392.63;2240700;78;31210;-68
2021/03/22 13:15:49;;;;;;;32.30;8.18;;;;;;;7.29;52.75;100389.81;2232306;78;33991;-71
2021/03/22 13:18:51;;;;;;;11.40;5.55;;;;;;;7.24;53.40;100394.42;2232168;78;28864;-70
2021/03/22 13:21:54;;;;;;;7.53;3.58;;;;;;;7.29;53.24;100387.59;2229637;78;27762;-69
2021/03/22 13:24:56;;;;;;;6.75;3.90;;;;;;;7.36;52.08;100390.47;2229731;78;28823;-84
2021/03/22 13:27:59;;;;;;;14.65;4.60;;;;;;;7.48;51.57;100393.63;2255444;78;31459;-68
2021/03/22 13:31:03;;;;;;;15.75;5.95;;;;;;;7.63;52.88;100393.08;2244440;78;33151;-76
2021/03/22 13:34:05;;;;;;;24.32;5.08;;;;;;;7.77;52.59;100391.73;2221488;79;28925;-73
2021/03/22 13:37:09;;;;;;;17.02;4.28;;;;;;;7.87;51.97;100387.30;2229756;78;27695;-74
2021/03/22 13:40:14;;;;;;;33.53;19.23;;;;;;;7.91;50.97;100401.42;2243578;78;28727;-72
2021/03/22 13:43:20;;;;;;;55.33;8.47;;;;;;;7.90;51.21;100390.34;2237480;78;31143;-69
2021/03/22 13:46:25;;;;;;;12.93;5.50;;;;;;;7.87;48.33;100392.64;2223904;78;33192;-67
2021/03/22 13:49:27;;;;;;;9.60;4.37;;;;;;;7.77;49.02;100393.92;2238528;78;28792;-68
2021/03/22 13:52:40;;;;;;;53.55;9.35;;;;;;;7.76;49.44;100397.51;2228412;78;27790;-68
2021/03/22 13:55:48;;;;;;;21.55;6.78;;;;;;;7.75;49.99;100401.09;2220065;78;27663;-68
2021/03/22 13:58:50;;;;;;;24.63;9.80;;;;;;;7.78;50.50;100402.80;2230920;78;31250;-67
2021/03/22 14:01:54;;;;;;;28.65;11.93;;;;;;;7.81;50.77;100409.34;2225794;78;33218;-69
2021/03/22 14:04:57;;;;;;;8.18;4.25;;;;;;;7.76;48.25;100408.17;2261627;78;28859;-69
2021/03/22 14:08:00;;;;;;;59.45;9.60;;;;;;;7.74;49.74;100404.69;2257540;78;27641;-71
2021/03/22 14:11:03;;;;;;;29.63;7.72;;;;;;;7.74;50.05;100406.91;2221451;80;28817;-69
2021/03/22 14:14:05;;;;;;;30.65;6.15;;;;;;;7.78;50.67;100408.14;2221502;80;31198;-69
2021/03/22 14:17:07;;;;;;;36.25;7.62;;;;;;;7.80;50.24;100406.26;2221002;78;34421;-68
2021/03/22 14:20:12;;;;;;;14.18;4.92;;;;;;;7.81;50.78;100406.67;2221920;78;28861;-67
2021/03/22 14:23:20;;;;;;;41.42;7.35;;;;;;;7.82;50.06;100403.97;2220866;80;27608;-71
2021/03/22 14:26:22;;;;;;;7.50;3.75;;;;;;;7.83;49.94;100402.16;2220712;80;28797;-72
2021/03/22 14:29:34;;;;;;;6.67;4.30;;;;;;;7.80;49.52;100407.14;2237042;78;31072;-72
2021/03/22 14:33:03;;;;;;;10.13;3.27;;;;;;;7.75;49.24;100405.98;2229124;78;28078;-73
2021/03/22 14:36:06;;;;;;;7.83;2.65;;;;;;;7.67;48.01;100412.05;2252508;78;29732;-71
2021/03/22 14:39:10;;;;;;;30.37;6.67;;;;;;;7.60;48.31;100410.54;2233071;78;27753;-69